sensor_id;sensor_type;location;lat;lon;timestamp;pressure;altitude;pressure_sealevel;temperature;humidity
76257;BME280;65074;50.436;8.672;2023-11-21T00:00:43;98756.50;;;7.90;100.00
76257;BME280;65074;50.436;8.672;2023-11-21T00:03:09;98758.09;;;7.91;100.00
76257;BME280;65074;50.436;8.672;2023-11-21T00:05:36;98761.03;;;7.89;100.00
76257;BME280;65074;50.436;8.672;2023-11-21T00:08:02;98762.63;;;7.90;100.00
76257;BME280;65074;50.436;8.672;2023-11-21T00:10:27;98753.56;;;7.91;100.00
76257;BME280;65074;50.436;8.672;2023-11-21T00:12:53;98759.19;;;7.90;100.00
76257;BME280;65074;50.436;8.672;2023-11-21T00:15:20;98762.41;;;7.92;100.00
76257;BME280;65074;50.436;8.672;2023-11-21T00:17:45;98761.34;;;7.93;100.00
76257;BME280;65074;50.436;8.672;2023-11-21T00:20:11;98759.47;;;7.93;100.00
76257;BME280;65074;50.436;8.672;2023-11-21T00:22:38;98756.78;;;7.93;100.00
76257;BME280;65074;50.436;8.672;2023-11-21T00:25:06;98751.44;;;7.93;100.00
76257;BME280;65074;50.436;8.672;2023-11-21T00:27:31;98751.44;;;7.93;100.00
76257;BME280;65074;50.436;8.672;2023-11-21T00:29:56;98751.44;;;7.93;100.00
76257;BME280;65074;50.436;8.672;2023-11-21T00:32:22;98755.75;;;7.94;100.00
76257;BME280;65074;50.436;8.672;2023-11-21T00:34:48;98761.09;;;7.94;100.00
76257;BME280;65074;50.436;8.672;2023-11-21T00:37:14;98761.91;;;7.95;100.00
76257;BME280;65074;50.436;8.672;2023-11-21T00:39:41;98763.78;;;7.94;100.00
76257;BME280;65074;50.436;8.672;2023-11-21T00:42:06;98765.66;;;7.94;100.00
76257;BME280;65074;50.436;8.672;2023-11-21T00:44:32;98756.78;;;7.93;100.00
76257;BME280;65074;50.436;8.672;2023-11-21T00:46:59;98765.66;;;7.94;100.00
76257;BME280;65074;50.436;8.672;2023-11-21T00:49:24;98769.13;;;7.94;100.00
76257;BME280;65074;50.436;8.672;2023-11-21T00:51:50;98765.66;;;7.94;100.00
76257;BME280;65074;50.436;8.672;2023-11-21T00:54:15;98771.25;;;7.92;100.00
76257;BME280;65074;50.436;8.672;2023-11-21T00:56:42;98771.25;;;7.92;100.00
76257;BME280;65074;50.436;8.672;2023-11-21T00:59:08;98771.25;;;7.92;100.00
76257;BME280;65074;50.436;8.672;2023-11-21T01:01:33;98769.63;;;7.91;100.00
76257;BME280;65074;50.436;8.672;2023-11-21T01:03:59;98765.31;;;7.90;100.00
76257;BME280;65074;50.436;8.672;2023-11-21T01:06:25;98771.50;;;7.91;100.00
76257;BME280;65074;50.436;8.672;2023-11-21T01:08:50;98770.66;;;7.90;100.00
76257;BME280;65074;50.436;8.672;2023-11-21T01:11:15;98771.75;;;7.89;100.00
76257;BME280;65074;50.436;8.672;2023-11-21T01:13:42;98779.78;;;7.89;100.00
76257;BME280;65074;50.436;8.672;2023-11-21T01:16:08;98784.31;;;7.88;100.00
76257;BME280;65074;50.436;8.672;2023-11-21T01:18:35;98787.00;;;7.88;100.00
76257;BME280;65074;50.436;8.672;2023-11-21T01:21:00;98796.88;;;7.88;100.00
76257;BME280;65074;50.436;8.672;2023-11-21T01:23:26;98795.03;;;7.88;100.00
76257;BME280;65074;50.436;8.672;2023-11-21T01:25:52;98794.00;;;7.90;100.00
76257;BME280;65074;50.436;8.672;2023-11-21T01:28:18;98793.16;;;7.89;100.00
76257;BME280;65074;50.436;8.672;2023-11-21T01:30:43;98796.66;;;7.90;100.00
76257;BME280;65074;50.436;8.672;2023-11-21T01:33:09;98792.09;;;7.90;100.00
76257;BME280;65074;50.436;8.672;2023-11-21T01:35:35;98805.25;;;7.92;100.00
76257;BME280;65074;50.436;8.672;2023-11-21T01:38:01;98799.91;;;7.92;100.00
76257;BME280;65074;50.436;8.672;2023-11-21T01:40:26;98800.72;;;7.92;100.00
76257;BME280;65074;50.436;8.672;2023-11-21T01:42:53;98802.31;;;7.93;100.00
76257;BME280;65074;50.436;8.672;2023-11-21T01:45:18;98805.81;;;7.94;100.00
76257;BME280;65074;50.436;8.672;2023-11-21T01:47:45;98812.00;;;7.94;100.00
76257;BME280;65074;50.436;8.672;2023-11-21T01:50:16;98804.78;;;7.95;100.00
76257;BME280;65074;50.436;8.672;2023-11-21T01:52:44;98812.81;;;7.95;100.00
76257;BME280;65074;50.436;8.672;2023-11-21T01:55:10;98814.41;;;7.96;100.00
76257;BME280;65074;50.436;8.672;2023-11-21T01:57:36;98808.56;;;7.99;100.00
76257;BME280;65074;50.436;8.672;2023-11-21T02:00:05;98817.41;;;7.99;100.00
76257;BME280;65074;50.436;8.672;2023-11-21T02:02:47;98819.03;;;8.00;100.00
76257;BME280;65074;50.436;8.672;2023-11-21T02:05:16;98800.53;;;7.99;100.00
76257;BME280;65074;50.436;8.672;2023-11-21T02:07:44;98809.38;;;7.99;100.00
76257;BME280;65074;50.436;8.672;2023-11-21T02:10:11;98815.56;;;8.00;100.00
76257;BME280;65074;50.436;8.672;2023-11-21T02:12:44;98810.22;;;8.00;100.00
76257;BME280;65074;50.436;8.672;2023-11-21T02:15:13;98812.06;;;7.99;100.00
76257;BME280;65074;50.436;8.672;2023-11-21T02:17:45;98809.06;;;7.96;100.00
76257;BME280;65074;50.436;8.672;2023-11-21T02:20:17;98809.78;;;7.91;100.00
76257;BME280;65074;50.436;8.672;2023-11-21T02:22:49;98811.34;;;7.87;100.00
76257;BME280;65074;50.436;8.672;2023-11-21T02:25:14;98809.34;;;7.77;100.00
76257;BME280;65074;50.436;8.672;2023-11-21T02:27:40;98813.53;;;7.73;100.00
76257;BME280;65074;50.436;8.672;2023-11-21T02:30:06;98815.91;;;7.70;100.00
76257;BME280;65074;50.436;8.672;2023-11-21T02:32:33;98818.59;;;7.70;100.00
76257;BME280;65074;50.436;8.672;2023-11-21T02:34:59;98821.25;;;7.70;100.00
76257;BME280;65074;50.436;8.672;2023-11-21T02:37:28;98826.09;;;7.73;100.00
76257;BME280;65074;50.436;8.672;2023-11-21T02:39:53;98829.38;;;7.75;100.00
76257;BME280;65074;50.436;8.672;2023-11-21T02:42:19;98829.13;;;7.76;100.00
76257;BME280;65074;50.436;8.672;2023-11-21T02:44:44;98826.69;;;7.75;100.00
76257;BME280;65074;50.436;8.672;2023-11-21T02:47:10;98819.38;;;7.70;100.00
76257;BME280;65074;50.436;8.672;2023-11-21T02:49:35;98823.69;;;7.71;100.00
76257;BME280;65074;50.436;8.672;2023-11-21T02:52:01;98828.22;;;7.71;100.00
76257;BME280;65074;50.436;8.672;2023-11-21T02:54:26;98822.66;;;7.72;100.00
76257;BME280;65074;50.436;8.672;2023-11-21T02:56:52;98834.66;;;7.70;100.00
76257;BME280;65074;50.436;8.672;2023-11-21T02:59:18;98826.84;;;7.68;100.00
76257;BME280;65074;50.436;8.672;2023-11-21T03:01:45;98831.38;;;7.68;100.00
76257;BME280;65074;50.436;8.672;2023-11-21T03:04:11;98830.25;;;7.64;100.00
76257;BME280;65074;50.436;8.672;2023-11-21T03:06:41;98832.69;;;7.65;100.00
76257;BME280;65074;50.436;8.672;2023-11-21T03:09:06;98833.75;;;7.64;100.00
76257;BME280;65074;50.436;8.672;2023-11-21T03:11:31;98837.47;;;7.63;100.00
76257;BME280;65074;50.436;8.672;2023-11-21T03:13:57;98831.31;;;7.63;100.00
76257;BME280;65074;50.436;8.672;2023-11-21T03:16:22;98839.09;;;7.64;100.00
76257;BME280;65074;50.436;8.672;2023-11-21T03:18:48;98835.59;;;7.64;100.00
76257;BME280;65074;50.436;8.672;2023-11-21T03:21:13;98838.63;;;7.67;100.00
76257;BME280;65074;50.436;8.672;2023-11-21T03:23:38;98837.81;;;7.67;100.00
76257;BME280;65074;50.436;8.672;2023-11-21T03:26:05;98846.06;;;7.65;100.00
76257;BME280;65074;50.436;8.672;2023-11-21T03:28:34;98845.84;;;7.67;100.00
76257;BME280;65074;50.436;8.672;2023-11-21T03:31:00;98844.19;;;7.66;100.00
76257;BME280;65074;50.436;8.672;2023-11-21T03:33:25;98858.66;;;7.65;100.00
76257;BME280;65074;50.436;8.672;2023-11-21T03:35:50;98861.91;;;7.67;100.00
76257;BME280;65074;50.436;8.672;2023-11-21T03:38:18;98868.38;;;7.71;100.00
76257;BME280;65074;50.436;8.672;2023-11-21T03:40:43;98870.03;;;7.72;100.00
76257;BME280;65074;50.436;8.672;2023-11-21T03:43:09;98870.31;;;7.75;100.00
76257;BME280;65074;50.436;8.672;2023-11-21T03:45:34;98873.25;;;7.74;100.00
76257;BME280;65074;50.436;8.672;2023-11-21T03:47:59;98877.06;;;7.78;100.00
76257;BME280;65074;50.436;8.672;2023-11-21T03:50:30;98871.72;;;7.78;100.00
76257;BME280;65074;50.436;8.672;2023-11-21T03:52:56;98873.34;;;7.79;100.00
76257;BME280;65074;50.436;8.672;2023-11-21T03:55:22;98871.47;;;7.79;100.00
76257;BME280;65074;50.436;8.672;2023-11-21T03:57:49;98866.94;;;7.80;100.00
76257;BME280;65074;50.436;8.672;2023-11-21T04:00:14;98873.09;;;7.80;100.00
76257;BME280;65074;50.436;8.672;2023-11-21T04:02:40;98875.47;;;7.77;100.00
76257;BME280;65074;50.436;8.672;2023-11-21T04:05:05;98867.91;;;7.74;100.00
76257;BME280;65074;50.436;8.672;2023-11-21T04:07:32;98874.56;;;7.71;100.00
76257;BME280;65074;50.436;8.672;2023-11-21T04:09:59;98872.13;;;7.70;100.00
76257;BME280;65074;50.436;8.672;2023-11-21T04:12:25;98875.28;;;7.67;100.00
76257;BME280;65074;50.436;8.672;2023-11-21T04:14:50;98880.63;;;7.67;100.00
76257;BME280;65074;50.436;8.672;2023-11-21T04:17:18;98884.84;;;7.63;100.00
76257;BME280;65074;50.436;8.672;2023-11-21T04:19:44;98882.31;;;7.56;100.00
76257;BME280;65074;50.436;8.672;2023-11-21T04:22:09;98880.38;;;7.52;100.00
76257;BME280;65074;50.436;8.672;2023-11-21T04:24:34;98886.19;;;7.49;100.00
76257;BME280;65074;50.436;8.672;2023-11-21T04:27:00;98881.56;;;7.44;100.00
76257;BME280;65074;50.436;8.672;2023-11-21T04:29:25;98886.59;;;7.41;100.00
76257;BME280;65074;50.436;8.672;2023-11-21T04:31:51;98888.69;;;7.39;100.00
76257;BME280;65074;50.436;8.672;2023-11-21T04:34:16;98893.72;;;7.35;100.00
76257;BME280;65074;50.436;8.672;2023-11-21T04:36:41;98895.59;;;7.35;100.00
76257;BME280;65074;50.436;8.672;2023-11-21T04:39:07;98895.03;;;7.33;100.00
76257;BME280;65074;50.436;8.672;2023-11-21T04:41:32;98906.75;;;7.32;100.00
76257;BME280;65074;50.436;8.672;2023-11-21T04:43:58;98910.72;;;7.29;100.00
76257;BME280;65074;50.436;8.672;2023-11-21T04:46:26;98902.97;;;7.28;100.00
76257;BME280;65074;50.436;8.672;2023-11-21T04:48:51;98919.00;;;7.28;100.00
76257;BME280;65074;50.436;8.672;2023-11-21T04:51:17;98917.63;;;7.25;100.00
76257;BME280;65074;50.436;8.672;2023-11-21T04:53:42;98920.50;;;7.23;100.00
76257;BME280;65074;50.436;8.672;2023-11-21T04:56:08;98933.09;;;7.23;100.00
76257;BME280;65074;50.436;8.672;2023-11-21T04:58:33;98930.66;;;7.21;100.00
76257;BME280;65074;50.436;8.672;2023-11-21T05:00:58;98929.25;;;7.19;100.00
76257;BME280;65074;50.436;8.672;2023-11-21T05:03:24;98935.91;;;7.16;100.00
76257;BME280;65074;50.436;8.672;2023-11-21T05:05:50;98941.25;;;7.16;100.00
76257;BME280;65074;50.436;8.672;2023-11-21T05:08:15;98936.97;;;7.15;100.00
76257;BME280;65074;50.436;8.672;2023-11-21T05:10:41;98937.69;;;7.11;100.00
76257;BME280;65074;50.436;8.672;2023-11-21T05:13:06;98946.38;;;7.06;100.00
76257;BME280;65074;50.436;8.672;2023-11-21T05:15:36;98953.63;;;7.06;100.00
76257;BME280;65074;50.436;8.672;2023-11-21T05:18:01;98954.91;;;7.03;100.00
76257;BME280;65074;50.436;8.672;2023-11-21T05:20:27;98962.31;;;7.01;100.00
76257;BME280;65074;50.436;8.672;2023-11-21T05:22:53;98957.47;;;6.98;100.00
76257;BME280;65074;50.436;8.672;2023-11-21T05:25:18;98958.16;;;6.94;100.00
76257;BME280;65074;50.436;8.672;2023-11-21T05:27:45;98963.41;;;6.89;100.00
76257;BME280;65074;50.436;8.672;2023-11-21T05:30:11;98970.06;;;6.86;100.00
76257;BME280;65074;50.436;8.672;2023-11-21T05:32:38;98972.38;;;6.83;100.00
76257;BME280;65074;50.436;8.672;2023-11-21T05:35:04;98976.09;;;6.82;100.00
76257;BME280;65074;50.436;8.672;2023-11-21T05:37:35;98982.97;;;6.78;100.00
76257;BME280;65074;50.436;8.672;2023-11-21T05:40:01;98990.63;;;6.74;100.00
76257;BME280;65074;50.436;8.672;2023-11-21T05:42:31;98996.78;;;6.75;100.00
76257;BME280;65074;50.436;8.672;2023-11-21T05:44:57;98996.66;;;6.70;100.00
76257;BME280;65074;50.436;8.672;2023-11-21T05:47:24;99001.81;;;6.71;100.00
76257;BME280;65074;50.436;8.672;2023-11-21T05:49:51;99004.94;;;6.68;100.00
76257;BME280;65074;50.436;8.672;2023-11-21T05:52:17;99006.78;;;6.68;100.00
76257;BME280;65074;50.436;8.672;2023-11-21T05:54:43;99010.03;;;6.70;100.00
76257;BME280;65074;50.436;8.672;2023-11-21T05:57:09;99011.09;;;6.69;100.00
76257;BME280;65074;50.436;8.672;2023-11-21T05:59:34;99009.69;;;6.66;100.00
76257;BME280;65074;50.436;8.672;2023-11-21T06:01:59;99006.22;;;6.66;100.00
76257;BME280;65074;50.436;8.672;2023-11-21T06:04:25;99009.91;;;6.65;100.00
76257;BME280;65074;50.436;8.672;2023-11-21T06:06:51;99014.69;;;6.63;100.00
76257;BME280;65074;50.436;8.672;2023-11-21T06:09:18;99014.69;;;6.63;100.00
76257;BME280;65074;50.436;8.672;2023-11-21T06:11:43;99015.75;;;6.62;100.00
76257;BME280;65074;50.436;8.672;2023-11-21T06:14:08;99020.84;;;6.63;100.00
76257;BME280;65074;50.436;8.672;2023-11-21T06:16:35;99026.78;;;6.65;100.00
76257;BME280;65074;50.436;8.672;2023-11-21T06:19:00;99034.78;;;6.65;100.00
76257;BME280;65074;50.436;8.672;2023-11-21T06:21:26;99032.69;;;6.67;100.00
76257;BME280;65074;50.436;8.672;2023-11-21T06:23:51;99040.97;;;6.66;100.00
76257;BME280;65074;50.436;8.672;2023-11-21T06:26:18;99045.25;;;6.67;100.00
76257;BME280;65074;50.436;8.672;2023-11-21T06:28:44;99049.56;;;6.68;100.00
76257;BME280;65074;50.436;8.672;2023-11-21T06:31:09;99051.97;;;6.69;100.00
76257;BME280;65074;50.436;8.672;2023-11-21T06:33:36;99053.03;;;6.68;100.00
76257;BME280;65074;50.436;8.672;2023-11-21T06:36:01;99054.19;;;6.72;100.00
76257;BME280;65074;50.436;8.672;2023-11-21T06:38:31;99051.53;;;6.72;100.00
76257;BME280;65074;50.436;8.672;2023-11-21T06:40:58;99056.03;;;6.72;100.00
76257;BME280;65074;50.436;8.672;2023-11-21T06:43:23;99050.03;;;6.76;100.00
76257;BME280;65074;50.436;8.672;2023-11-21T06:45:49;99055.97;;;6.78;100.00
76257;BME280;65074;50.436;8.672;2023-11-21T06:48:14;99062.34;;;6.77;100.00
76257;BME280;65074;50.436;8.672;2023-11-21T06:50:40;99066.84;;;6.77;100.00
76257;BME280;65074;50.436;8.672;2023-11-21T06:53:07;99066.06;;;6.76;100.00
76257;BME280;65074;50.436;8.672;2023-11-21T06:55:33;99071.19;;;6.78;100.00
76257;BME280;65074;50.436;8.672;2023-11-21T06:57:59;99079.78;;;6.80;100.00
76257;BME280;65074;50.436;8.672;2023-11-21T07:00:25;99082.44;;;6.80;100.00
76257;BME280;65074;50.436;8.672;2023-11-21T07:02:52;99087.34;;;6.83;100.00
76257;BME280;65074;50.436;8.672;2023-11-21T07:05:18;99082.56;;;6.85;100.00
76257;BME280;65074;50.436;8.672;2023-11-21T07:07:46;99086.50;;;6.82;100.00
76257;BME280;65074;50.436;8.672;2023-11-21T07:10:11;99086.50;;;6.82;100.00
76257;BME280;65074;50.436;8.672;2023-11-21T07:12:37;99094.91;;;6.86;100.00
76257;BME280;65074;50.436;8.672;2023-11-21T07:15:03;99095.72;;;6.86;100.00
76257;BME280;65074;50.436;8.672;2023-11-21T07:17:31;99106.16;;;6.88;100.00
76257;BME280;65074;50.436;8.672;2023-11-21T07:19:56;99109.41;;;6.90;100.00
76257;BME280;65074;50.436;8.672;2023-11-21T07:22:22;99123.38;;;6.92;100.00
76257;BME280;65074;50.436;8.672;2023-11-21T07:24:50;99121.06;;;6.95;100.00
76257;BME280;65074;50.436;8.672;2023-11-21T07:27:18;99118.13;;;6.97;100.00
76257;BME280;65074;50.436;8.672;2023-11-21T07:29:44;99132.91;;;6.99;100.00
76257;BME280;65074;50.436;8.672;2023-11-21T07:32:09;99127.34;;;7.01;100.00
76257;BME280;65074;50.436;8.672;2023-11-21T07:34:35;99131.88;;;7.00;100.00
76257;BME280;65074;50.436;8.672;2023-11-21T07:37:01;99143.16;;;7.02;100.00
76257;BME280;65074;50.436;8.672;2023-11-21T07:39:27;99140.59;;;7.07;100.00
76257;BME280;65074;50.436;8.672;2023-11-21T07:41:52;99139.06;;;7.11;100.00
76257;BME280;65074;50.436;8.672;2023-11-21T07:44:17;99140.34;;;7.09;100.00
76257;BME280;65074;50.436;8.672;2023-11-21T07:46:43;99141.16;;;7.09;100.00
76257;BME280;65074;50.436;8.672;2023-11-21T07:49:09;99151.88;;;7.09;100.00
76257;BME280;65074;50.436;8.672;2023-11-21T07:51:34;99149.66;;;7.06;100.00
76257;BME280;65074;50.436;8.672;2023-11-21T07:54:00;99152.31;;;7.06;100.00
76257;BME280;65074;50.436;8.672;2023-11-21T07:56:25;99161.16;;;7.07;100.00
76257;BME280;65074;50.436;8.672;2023-11-21T07:58:51;99152.69;;;7.10;100.00
76257;BME280;65074;50.436;8.672;2023-11-21T08:01:16;99160.72;;;7.10;100.00
76257;BME280;65074;50.436;8.672;2023-11-21T08:03:41;99158.38;;;7.13;100.00
76257;BME280;65074;50.436;8.672;2023-11-21T08:06:07;99168.75;;;7.10;100.00
76257;BME280;65074;50.436;8.672;2023-11-21T08:08:32;99174.41;;;7.13;100.00
76257;BME280;65074;50.436;8.672;2023-11-21T08:10:58;99173.06;;;7.11;100.00
76257;BME280;65074;50.436;8.672;2023-11-21T08:13:25;99179.19;;;7.11;100.00
76257;BME280;65074;50.436;8.672;2023-11-21T08:15:53;99183.50;;;7.12;100.00
76257;BME280;65074;50.436;8.672;2023-11-21T08:18:18;99190.97;;;7.10;100.00
76257;BME280;65074;50.436;8.672;2023-11-21T08:20:45;99188.75;;;7.07;100.00
76257;BME280;65074;50.436;8.672;2023-11-21T08:23:15;99193.25;;;7.07;100.00
76257;BME280;65074;50.436;8.672;2023-11-21T08:25:43;99201.28;;;7.07;100.00
76257;BME280;65074;50.436;8.672;2023-11-21T08:28:08;99193.97;;;7.14;100.00
76257;BME280;65074;50.436;8.672;2023-11-21T08:30:33;99202.47;;;7.22;100.00
76257;BME280;65074;50.436;8.672;2023-11-21T08:33:00;99206.56;;;7.25;100.00
76257;BME280;65074;50.436;8.672;2023-11-21T08:35:25;99208.66;;;7.35;100.00
76257;BME280;65074;50.436;8.672;2023-11-21T08:37:51;99202.47;;;7.46;100.00
76257;BME280;65074;50.436;8.672;2023-11-21T08:40:18;99197.47;;;7.49;100.00
76257;BME280;65074;50.436;8.672;2023-11-21T08:42:43;99195.84;;;7.60;100.00
76257;BME280;65074;50.436;8.672;2023-11-21T08:45:10;99200.97;;;7.61;100.00
76257;BME280;65074;50.436;8.672;2023-11-21T08:47:36;99206.91;;;7.75;100.00
76257;BME280;65074;50.436;8.672;2023-11-21T08:50:02;99212.81;;;7.77;100.00
76257;BME280;65074;50.436;8.672;2023-11-21T08:52:30;99214.34;;;7.84;100.00
76257;BME280;65074;50.436;8.672;2023-11-21T08:54:56;99213.63;;;7.89;100.00
76257;BME280;65074;50.436;8.672;2023-11-21T08:57:25;99211.50;;;7.91;100.00
76257;BME280;65074;50.436;8.672;2023-11-21T08:59:50;99220.00;;;8.00;100.00
76257;BME280;65074;50.436;8.672;2023-11-21T09:02:21;99212.97;;;8.10;100.00
76257;BME280;65074;50.436;8.672;2023-11-21T09:04:48;99211.25;;;8.04;100.00
76257;BME280;65074;50.436;8.672;2023-11-21T09:07:14;99210.47;;;7.92;100.00
76257;BME280;65074;50.436;8.672;2023-11-21T09:09:39;99226.28;;;7.94;100.00
76257;BME280;65074;50.436;8.672;2023-11-21T09:12:05;99220.69;;;7.95;100.00
76257;BME280;65074;50.436;8.672;2023-11-21T09:14:31;99222.19;;;8.03;100.00
76257;BME280;65074;50.436;8.672;2023-11-21T09:16:56;99229.41;;;8.14;100.00
76257;BME280;65074;50.436;8.672;2023-11-21T09:19:22;99234.84;;;8.30;100.00
76257;BME280;65074;50.436;8.672;2023-11-21T09:21:47;99236.19;;;8.44;100.00
76257;BME280;65074;50.436;8.672;2023-11-21T09:24:12;99236.41;;;8.55;100.00
76257;BME280;65074;50.436;8.672;2023-11-21T09:26:38;99238.28;;;8.54;100.00
76257;BME280;65074;50.436;8.672;2023-11-21T09:29:03;99244.16;;;8.68;100.00
76257;BME280;65074;50.436;8.672;2023-11-21T09:31:28;99257.22;;;8.92;100.00
76257;BME280;65074;50.436;8.672;2023-11-21T09:33:54;99255.66;;;8.80;100.00
76257;BME280;65074;50.436;8.672;2023-11-21T09:36:19;99272.50;;;8.92;100.00
76257;BME280;65074;50.436;8.672;2023-11-21T09:38:47;99264.25;;;9.10;100.00
76257;BME280;65074;50.436;8.672;2023-11-21T09:41:33;99261.91;;;9.30;100.00
76257;BME280;65074;50.436;8.672;2023-11-21T09:44:02;99259.31;;;9.52;100.00
76257;BME280;65074;50.436;8.672;2023-11-21T09:46:33;99268.25;;;9.57;100.00
76257;BME280;65074;50.436;8.672;2023-11-21T09:49:00;99269.66;;;9.60;100.00
76257;BME280;65074;50.436;8.672;2023-11-21T09:51:31;99268.56;;;9.61;100.00
76257;BME280;65074;50.436;8.672;2023-11-21T09:53:59;99267.81;;;9.65;100.00
76257;BME280;65074;50.436;8.672;2023-11-21T09:56:27;99266.22;;;9.64;100.00
76257;BME280;65074;50.436;8.672;2023-11-21T09:58:55;99267.75;;;9.77;100.00
76257;BME280;65074;50.436;8.672;2023-11-21T10:01:23;99269.09;;;9.96;100.00
76257;BME280;65074;50.436;8.672;2023-11-21T10:03:49;99272.16;;;10.21;100.00
76257;BME280;65074;50.436;8.672;2023-11-21T10:06:16;99276.50;;;10.44;100.00
76257;BME280;65074;50.436;8.672;2023-11-21T10:08:43;99274.16;;;10.31;100.00
76257;BME280;65074;50.436;8.672;2023-11-21T10:11:10;99270.84;;;10.24;100.00
76257;BME280;65074;50.436;8.672;2023-11-21T10:13:37;99285.47;;;10.33;100.00
76257;BME280;65074;50.436;8.672;2023-11-21T10:16:05;99287.47;;;10.21;100.00
76257;BME280;65074;50.436;8.672;2023-11-21T10:18:33;99283.72;;;10.05;100.00
76257;BME280;65074;50.436;8.672;2023-11-21T10:21:00;99283.66;;;10.00;100.00
76257;BME280;65074;50.436;8.672;2023-11-21T10:23:26;99297.69;;;9.86;100.00
76257;BME280;65074;50.436;8.672;2023-11-21T10:25:52;99290.69;;;9.85;100.00
76257;BME280;65074;50.436;8.672;2023-11-21T10:28:18;99291.97;;;9.99;100.00
76257;BME280;65074;50.436;8.672;2023-11-21T10:30:44;99297.53;;;9.75;100.00
76257;BME280;65074;50.436;8.672;2023-11-21T10:33:09;99294.91;;;9.80;100.00
76257;BME280;65074;50.436;8.672;2023-11-21T10:38:07;99299.69;;;9.95;100.00
76257;BME280;65074;50.436;8.672;2023-11-21T10:40:39;99303.47;;;9.94;100.00
76257;BME280;65074;50.436;8.672;2023-11-21T10:43:06;99300.84;;;9.99;100.00
76257;BME280;65074;50.436;8.672;2023-11-21T10:45:34;99300.38;;;10.40;100.00
76257;BME280;65074;50.436;8.672;2023-11-21T10:47:59;99293.75;;;10.48;100.00
76257;BME280;65074;50.436;8.672;2023-11-21T10:50:26;99300.00;;;10.75;100.00
76257;BME280;65074;50.436;8.672;2023-11-21T10:52:51;99299.78;;;11.08;100.00
76257;BME280;65074;50.436;8.672;2023-11-21T10:55:20;99304.66;;;11.11;100.00
76257;BME280;65074;50.436;8.672;2023-11-21T10:57:49;99305.22;;;10.87;100.00
76257;BME280;65074;50.436;8.672;2023-11-21T11:00:16;99296.69;;;10.95;100.00
76257;BME280;65074;50.436;8.672;2023-11-21T11:02:42;99307.69;;;10.88;100.00
76257;BME280;65074;50.436;8.672;2023-11-21T11:05:08;99304.50;;;10.70;100.00
76257;BME280;65074;50.436;8.672;2023-11-21T11:07:38;99308.22;;;10.90;100.00
76257;BME280;65074;50.436;8.672;2023-11-21T11:10:08;99310.38;;;10.88;100.00
76257;BME280;65074;50.436;8.672;2023-11-21T11:12:34;99311.56;;;10.76;100.00
76257;BME280;65074;50.436;8.672;2023-11-21T11:15:01;99313.22;;;10.82;100.00
76257;BME280;65074;50.436;8.672;2023-11-21T11:17:27;99309.41;;;10.99;100.00
76257;BME280;65074;50.436;8.672;2023-11-21T11:19:53;99309.78;;;10.86;100.00
76257;BME280;65074;50.436;8.672;2023-11-21T11:22:37;99311.06;;;10.79;100.00
76257;BME280;65074;50.436;8.672;2023-11-21T11:25:30;99299.06;;;10.91;100.00
76257;BME280;65074;50.436;8.672;2023-11-21T11:28:17;99302.91;;;10.95;100.00
76257;BME280;65074;50.436;8.672;2023-11-21T11:33:42;99302.38;;;10.50;100.00
76257;BME280;65074;50.436;8.672;2023-11-21T11:36:29;99310.03;;;10.20;100.00
76257;BME280;65074;50.436;8.672;2023-11-21T11:38:56;99306.56;;;10.19;100.00
76257;BME280;65074;50.436;8.672;2023-11-21T11:41:31;99316.63;;;10.12;100.00
76257;BME280;65074;50.436;8.672;2023-11-21T11:43:58;99317.28;;;10.03;100.00
76257;BME280;65074;50.436;8.672;2023-11-21T11:46:44;99314.69;;;10.24;100.00
76257;BME280;65074;50.436;8.672;2023-11-21T11:49:27;99308.06;;;10.32;100.00
76257;BME280;65074;50.436;8.672;2023-11-21T11:52:31;99315.63;;;10.35;100.00
76257;BME280;65074;50.436;8.672;2023-11-21T11:54:56;99320.28;;;10.23;100.00
76257;BME280;65074;50.436;8.672;2023-11-21T11:57:30;99318.28;;;10.13;100.00
76257;BME280;65074;50.436;8.672;2023-11-21T12:00:16;99312.53;;;10.10;100.00
76257;BME280;65074;50.436;8.672;2023-11-21T12:02:48;99313.97;;;10.12;100.00
76257;BME280;65074;50.436;8.672;2023-11-21T12:05:16;99308.50;;;10.24;100.00
76257;BME280;65074;50.436;8.672;2023-11-21T12:07:44;99310.78;;;10.37;100.00
76257;BME280;65074;50.436;8.672;2023-11-21T12:10:15;99311.34;;;10.17;100.00
76257;BME280;65074;50.436;8.672;2023-11-21T12:12:47;99319.41;;;10.17;100.00
76257;BME280;65074;50.436;8.672;2023-11-21T12:15:14;99315.13;;;10.00;100.00
76257;BME280;65074;50.436;8.672;2023-11-21T12:17:41;99316.97;;;10.16;100.00
76257;BME280;65074;50.436;8.672;2023-11-21T12:20:07;99310.03;;;10.03;100.00
76257;BME280;65074;50.436;8.672;2023-11-21T12:22:42;99318.22;;;9.92;100.00
76257;BME280;65074;50.436;8.672;2023-11-21T12:25:08;99315.19;;;10.05;100.00
76257;BME280;65074;50.436;8.672;2023-11-21T12:27:33;99311.75;;;10.09;100.00
76257;BME280;65074;50.436;8.672;2023-11-21T12:29:59;99319.25;;;10.24;100.00
76257;BME280;65074;50.436;8.672;2023-11-21T12:32:24;99322.91;;;10.01;100.00
76257;BME280;65074;50.436;8.672;2023-11-21T12:34:51;99321.94;;;10.07;100.00
76257;BME280;65074;50.436;8.672;2023-11-21T12:37:16;99336.19;;;9.91;100.00
76257;BME280;65074;50.436;8.672;2023-11-21T12:39:42;99339.03;;;10.01;100.00
76257;BME280;65074;50.436;8.672;2023-11-21T12:42:07;99337.56;;;10.10;100.00
76257;BME280;65074;50.436;8.672;2023-11-21T12:44:34;99334.75;;;10.17;100.00
76257;BME280;65074;50.436;8.672;2023-11-21T12:46:59;99340.16;;;10.05;100.00
76257;BME280;65074;50.436;8.672;2023-11-21T12:49:24;99339.19;;;10.11;100.00
76257;BME280;65074;50.436;8.672;2023-11-21T12:51:50;99343.19;;;10.09;100.00
76257;BME280;65074;50.436;8.672;2023-11-21T12:54:16;99339.41;;;10.10;100.00
76257;BME280;65074;50.436;8.672;2023-11-21T12:56:45;99339.69;;;10.08;100.00
76257;BME280;65074;50.436;8.672;2023-11-21T12:59:12;99349.31;;;10.04;100.00
76257;BME280;65074;50.436;8.672;2023-11-21T13:01:42;99337.75;;;9.87;100.00